Tuesday, January 17, 2017, 8:33 PM EST

KPOU, Poughkeepsie Dutchess Cty

Location: Wappingers Falls, NY, United States Lat: 41.633
Local Time: 8:33 PM EST ( 1:33 GMT) Lon: -73.883
Time Zone: US/Eastern Elev: 167 ft

Show me the last for .
Show Decoded

2017-01-17 19:53 METAR KPOU 180053Z 00000KT 2 1/2SM -RA BR OVC019 01/M01 A3007 RMK AO2 SLP180
                 P0002 T00111006 =
2017-01-17 18:53 METAR KPOU 172353Z 30003KT 2 1/2SM -RA BR OVC018 01/00 A3010 RMK AO2 SLP191
                 P0011 60023 T00060000 10022 20006 56001 =
2017-01-17 18:41 METAR KPOU 172341Z 06005KT 1 3/4SM -RA BR OVC018 01/00 A3008 RMK AO2 P0007
                 T00060000 =
2017-01-17 17:56 METAR KPOU 172256Z 15004KT 3SM -RA BR OVC021 01/00 A3009 =
2017-01-17 17:53 METAR KPOU 172253Z 15003KT 2SM -RA BR OVC028 01/00 A3009 RMK AO2
                 RAE2158B29UPB2158E26B43E49 SLP187 P0002 T00060000 =
2017-01-17 16:55 METAR KPOU 172155Z 09003KT 2SM -RA BR OVC028 01/00 A3010 RMK AO2 P0000 T00110000
                 =
2017-01-17 16:53 METAR KPOU 172153Z 10003KT 3SM -RA BR OVC027 01/00 A3010 RMK AO2 UPB06E33RAB33
                 SLP192 P0007 T00110000 =
2017-01-17 15:53 METAR KPOU 172053Z 04003KT 2SM BR OVC030 02/01 A3010 RMK AO2 RAE01UPB01E43
                 SLP190 P0000 60003 T00170011 56016 =
2017-01-17 14:53 METAR KPOU 171953Z 35003KT 2 1/2SM -RA BR OVC034 02/01 A3011 RMK AO2
                 UPE07B46E50RAB50 SLP196 P0001 T00170006 =
2017-01-17 13:53 METAR KPOU 171853Z 01005KT 2 1/2SM UP BR OVC036 02/00 A3013 RMK AO2 SLP200 P0002
                 T00170000 =
2017-01-17 13:15 METAR KPOU 171815Z 00000KT 2 1/2SM UP BR OVC040 02/00 A3014 RMK AO2 P0001
                 T00170000 =
2017-01-17 12:53 METAR KPOU 171753Z 00000KT 3SM UP BR OVC043 02/00 A3015 RMK AO2 UPB06E16B48
                 SLP207 P0000 60001 T00170000 10022 21006 58023 =
2017-01-17 11:53 METAR KPOU 171653Z 00000KT 4SM BR OVC044 02/M01 A3017 RMK AO2 UPB18E36 SLP216
                 P0001 T00171006 =
2017-01-17 10:53 METAR KPOU 171553Z 35003KT 6SM HZ OVC045 02/M01 A3021 RMK AO2 UPB11E41 SLP227
                 P0000 T00171011 =
2017-01-17 09:53 METAR KPOU 171453Z 00000KT 6SM HZ OVC070 01/M02 A3022 RMK AO2 UPB32E47 SLP230
                 P0000 60000 T00111022 53001 =
2017-01-17 08:53 METAR KPOU 171353Z 00000KT 7SM OVC085 01/M03 A3021 RMK AO2 SLP229 T00061028 =
2017-01-17 07:53 METAR KPOU 171253Z 00000KT 6SM BR FEW070 OVC090 M01/M02 A3022 RMK AO2 SLP232
                 T10061022 =
2017-01-17 06:53 METAR KPOU 171153Z AUTO 00000KT 8SM OVC100 M01/M03 A3022 RMK AO2 SLP231
                 T10061028 10028 21006 53001 =
2017-01-17 05:53 METAR KPOU 171053Z AUTO 00000KT 8SM OVC110 M01/M03 A3021 RMK AO2 SLP227
                 T10061028 =
2017-01-17 04:53 METAR KPOU 170953Z AUTO 00000KT 7SM BKN060 M01/M03 A3021 RMK AO2 SLP227
                 T10061033 =
2017-01-17 03:53 METAR KPOU 170853Z AUTO 00000KT 8SM FEW060 OVC120 01/M03 A3021 RMK AO2 SLP229
                 T00061033 58010 =
2017-01-17 02:53 METAR KPOU 170753Z AUTO 00000KT 9SM OVC110 02/M03 A3023 RMK AO2 SLP234 T00221033
                 =
2017-01-17 01:53 METAR KPOU 170653Z AUTO 24005KT 9SM BKN085 OVC110 02/M03 A3024 RMK AO2 SLP237
                 T00221033 =
2017-01-17 00:53 METAR KPOU 170553Z AUTO 24003KT 10SM OVC075 03/M04 A3024 RMK AO2 SLP239
                 T00281039 10028 21011 56015 =
2017-01-16 23:53 METAR KPOU 170453Z AUTO 20003KT 10SM OVC080 03/M04 A3026 RMK AO2 SLP244
                 T00281039 400391106 =
2017-01-16 22:53 METAR KPOU 170353Z AUTO 21006KT 10SM OVC075 03/M04 A3027 RMK AO2 SLP248
                 T00281044 =
2017-01-16 21:53 METAR KPOU 170253Z AUTO 22008KT 10SM FEW120 02/M05 A3029 RMK AO2 SLP255
                 T00221050 58006 =
2017-01-16 20:53 METAR KPOU 170153Z AUTO 20004KT 10SM CLR 02/M06 A3029 RMK AO2 SLP257 T00221056 =

Support USWX by starting your Amazon purchase here.